AAL1397 KBOS-KMIA
Flight info
| Callsign | AAL1397 |
|---|---|
| Flight time | N/A |
| Altitude | 36000 |
| Route | SSOXS7 SSOXS Q167 RIFLE DCT HEADI Q97 KALDA Q101 TUGGR/N0455F380 Q101 SKARP Y313 HOAGG BNFSH2 |
| Aircraft | B738/M-SDE2E3FGHIRWXY/LB1 |
Departure
| Time | 2026-05-07 00:36 |
|---|---|
| Airport | Boston Logan International Airport (KBOS) |
Arrival
| Time | N/A |
|---|---|
| Airport | Miami International Airport (KMIA) |
| Time | Latitude | Longitude | Altitude | Speed | Heading |
|---|---|---|---|---|---|
| 2026-05-06 23:37 | 42.36231 | -71.02034 | 23 ft | 0 kts | 161° |
| 2026-05-07 00:10 | 42.36242 | -71.02039 | 26 ft | 3 kts | 161° |
| 2026-05-07 00:11 | 42.36260 | -71.02047 | 25 ft | 3 kts | 172° |
| 2026-05-07 00:11 | 42.36278 | -71.02046 | 24 ft | 3 kts | 200° |
| 2026-05-07 00:11 | 42.36295 | -71.02037 | 24 ft | 3 kts | 200° |
| 2026-05-07 00:11 | 42.36312 | -71.02029 | 24 ft | 3 kts | 200° |
| 2026-05-07 00:12 | 42.36330 | -71.02020 | 25 ft | 3 kts | 193° |
| 2026-05-07 00:12 | 42.36343 | -71.02016 | 25 ft | 0 kts | 206° |
| 2026-05-07 00:18 | 42.36329 | -71.02026 | 26 ft | 4 kts | 211° |
| 2026-05-07 00:18 | 42.36308 | -71.02048 | 28 ft | 4 kts | 220° |
| 2026-05-07 00:18 | 42.36294 | -71.02083 | 26 ft | 5 kts | 254° |
| 2026-05-07 00:18 | 42.36285 | -71.02128 | 26 ft | 5 kts | 253° |
| 2026-05-07 00:19 | 42.36273 | -71.02181 | 23 ft | 6 kts | 253° |
| 2026-05-07 00:19 | 42.36245 | -71.02242 | 24 ft | 8 kts | 213° |
| 2026-05-07 00:19 | 42.36192 | -71.02272 | 25 ft | 8 kts | 193° |
| 2026-05-07 00:19 | 42.36134 | -71.02274 | 26 ft | 8 kts | 188° |
| 2026-05-07 00:20 | 42.36081 | -71.02303 | 25 ft | 8 kts | 186° |
| 2026-05-07 00:20 | 42.36035 | -71.02260 | 24 ft | 8 kts | 125° |
| 2026-05-07 00:20 | 42.36005 | -71.02195 | 26 ft | 8 kts | 121° |
| 2026-05-07 00:20 | 42.35977 | -71.02132 | 25 ft | 8 kts | 121° |
| 2026-05-07 00:21 | 42.35950 | -71.02070 | 24 ft | 8 kts | 119° |
| 2026-05-07 00:21 | 42.35924 | -71.02011 | 26 ft | 7 kts | 121° |
| 2026-05-07 00:21 | 42.35898 | -71.01953 | 26 ft | 7 kts | 120° |
| 2026-05-07 00:21 | 42.35875 | -71.01896 | 28 ft | 7 kts | 118° |
| 2026-05-07 00:22 | 42.35866 | -71.01874 | 28 ft | 0 kts | 115° |
| 2026-05-07 00:22 | 42.35861 | -71.01858 | 26 ft | 6 kts | 115° |
| 2026-05-07 00:22 | 42.35849 | -71.01808 | 26 ft | 5 kts | 103° |
| 2026-05-07 00:22 | 42.35841 | -71.01757 | 26 ft | 5 kts | 102° |
| 2026-05-07 00:23 | 42.35837 | -71.01727 | 26 ft | 0 kts | 102° |
| 2026-05-07 00:24 | 42.35836 | -71.01721 | 26 ft | 1 kts | 101° |
| 2026-05-07 00:24 | 42.35835 | -71.01697 | 26 ft | 9 kts | 82° |
| 2026-05-07 00:25 | 42.35892 | -71.01647 | 27 ft | 10 kts | 21° |
| 2026-05-07 00:25 | 42.35959 | -71.01614 | 27 ft | 10 kts | 20° |
| 2026-05-07 00:25 | 42.36021 | -71.01583 | 29 ft | 10 kts | 20° |
| 2026-05-07 00:25 | 42.36087 | -71.01552 | 28 ft | 10 kts | 19° |
| 2026-05-07 00:26 | 42.36131 | -71.01531 | 25 ft | 9 kts | 19° |
| 2026-05-07 00:26 | 42.36185 | -71.01505 | 26 ft | 9 kts | 20° |
| 2026-05-07 00:26 | 42.36235 | -71.01480 | 23 ft | 9 kts | 20° |
| 2026-05-07 00:26 | 42.36291 | -71.01453 | 21 ft | 9 kts | 20° |
| 2026-05-07 00:27 | 42.36348 | -71.01422 | 20 ft | 9 kts | 31° |
| 2026-05-07 00:27 | 42.36405 | -71.01396 | 21 ft | 9 kts | 14° |
| 2026-05-07 00:27 | 42.36459 | -71.01370 | 22 ft | 8 kts | 21° |
| 2026-05-07 00:27 | 42.36512 | -71.01339 | 22 ft | 8 kts | 24° |
| 2026-05-07 00:28 | 42.36564 | -71.01301 | 22 ft | 10 kts | 38° |
| 2026-05-07 00:28 | 42.36589 | -71.01215 | 25 ft | 10 kts | 45° |
| 2026-05-07 00:28 | 42.36653 | -71.01179 | 28 ft | 10 kts | 21° |
| 2026-05-07 00:28 | 42.36718 | -71.01148 | 27 ft | 10 kts | 15° |
| 2026-05-07 00:29 | 42.36796 | -71.01159 | 25 ft | 13 kts | 329° |
| 2026-05-07 00:29 | 42.36862 | -71.01223 | 24 ft | 0 kts | 339° |
| 2026-05-07 00:30 | 42.37058 | -71.01061 | 21 ft | 24 kts | 25° |
| 2026-05-07 00:30 | 42.37203 | -71.00970 | 20 ft | 23 kts | 25° |
| 2026-05-07 00:30 | 42.37350 | -71.00881 | 19 ft | 23 kts | 20° |
| 2026-05-07 00:30 | 42.37497 | -71.00811 | 21 ft | 22 kts | 20° |
| 2026-05-07 00:31 | 42.37639 | -71.00741 | 24 ft | 21 kts | 20° |
| 2026-05-07 00:31 | 42.37745 | -71.00689 | 27 ft | 0 kts | 20° |
| 2026-05-07 00:31 | 42.37746 | -71.00689 | 27 ft | 1 kts | 20° |
| 2026-05-07 00:31 | 42.37772 | -71.00675 | 27 ft | 4 kts | 21° |
| 2026-05-07 00:32 | 42.37799 | -71.00661 | 27 ft | 4 kts | 21° |
| 2026-05-07 00:32 | 42.37825 | -71.00643 | 27 ft | 4 kts | 36° |
| 2026-05-07 00:32 | 42.37827 | -71.00640 | 27 ft | 0 kts | 39° |
| 2026-05-07 00:33 | 42.37841 | -71.00604 | 26 ft | 5 kts | 79° |
| 2026-05-07 00:34 | 42.37840 | -71.00583 | 28 ft | 0 kts | 105° |
| 2026-05-07 00:34 | 42.37835 | -71.00567 | 29 ft | 7 kts | 109° |
| 2026-05-07 00:34 | 42.37800 | -71.00491 | 24 ft | 11 kts | 145° |
| 2026-05-07 00:34 | 42.37738 | -71.00499 | 24 ft | 0 kts | 199° |
| 2026-05-07 00:35 | 42.37734 | -71.00501 | 27 ft | 6 kts | 199° |
| 2026-05-07 00:35 | 42.37544 | -71.00592 | 25 ft | 62 kts | 199° |
| 2026-05-07 00:35 | 42.36917 | -71.00894 | 23 ft | 125 kts | 200° |
| 2026-05-07 00:35 | 42.35953 | -71.01360 | 201 ft | 161 kts | 200° |
| 2026-05-07 00:36 | 42.34937 | -71.01789 | 1220 ft | 144 kts | 201° |
| 2026-05-07 00:36 | 42.33897 | -71.02152 | 1675 ft | 175 kts | 193° |
| 2026-05-07 00:36 | 42.32526 | -71.02063 | 1879 ft | 212 kts | 167° |
| 2026-05-07 00:36 | 42.31360 | -71.00825 | 2850 ft | 217 kts | 131° |
| 2026-05-07 00:37 | 42.30680 | -70.99063 | 3850 ft | 211 kts | 117° |
| 2026-05-07 00:37 | 42.30284 | -70.97072 | 4430 ft | 228 kts | 103° |
| 2026-05-07 00:37 | 42.30052 | -70.94976 | 5217 ft | 221 kts | 94° |
| 2026-05-07 00:37 | 42.30243 | -70.92921 | 5876 ft | 228 kts | 79° |
| 2026-05-07 00:38 | 42.30544 | -70.90759 | 6410 ft | 233 kts | 82° |
| 2026-05-07 00:38 | 42.30834 | -70.88614 | 7016 ft | 233 kts | 74° |
| 2026-05-07 00:38 | 42.31522 | -70.86719 | 7559 ft | 232 kts | 59° |
| 2026-05-07 00:38 | 42.32182 | -70.84783 | 8120 ft | 233 kts | 69° |
| 2026-05-07 00:39 | 42.32700 | -70.82728 | 8646 ft | 234 kts | 74° |
| 2026-05-07 00:39 | 42.33132 | -70.80607 | 9162 ft | 235 kts | 85° |
| 2026-05-07 00:39 | 42.32958 | -70.78497 | 9354 ft | 239 kts | 121° |
| 2026-05-07 00:39 | 42.32169 | -70.76451 | 9501 ft | 253 kts | 124° |
| 2026-05-07 00:40 | 42.31360 | -70.74247 | 9766 ft | 266 kts | 122° |
| 2026-05-07 00:40 | 42.30560 | -70.71984 | 10193 ft | 266 kts | 125° |
| 2026-05-07 00:40 | 42.29610 | -70.69884 | 10714 ft | 254 kts | 141° |
| 2026-05-07 00:40 | 42.28314 | -70.68379 | 11203 ft | 239 kts | 157° |
| 2026-05-07 00:41 | 42.26873 | -70.67434 | 11669 ft | 225 kts | 172° |
| 2026-05-07 00:41 | 42.25406 | -70.66770 | 12156 ft | 221 kts | 174° |
| 2026-05-07 00:41 | 42.23959 | -70.66121 | 12604 ft | 221 kts | 172° |
| 2026-05-07 00:41 | 42.22515 | -70.65375 | 13045 ft | 220 kts | 172° |
| 2026-05-07 00:42 | 42.21086 | -70.64656 | 13474 ft | 218 kts | 173° |
| 2026-05-07 00:42 | 42.19664 | -70.63971 | 13856 ft | 216 kts | 173° |
| 2026-05-07 00:42 | 42.18241 | -70.63306 | 14153 ft | 219 kts | 174° |
| 2026-05-07 00:42 | 42.16796 | -70.62643 | 14369 ft | 227 kts | 174° |
| 2026-05-07 00:43 | 42.15223 | -70.61941 | 14434 ft | 242 kts | 176° |
| 2026-05-07 00:43 | 42.13572 | -70.61702 | 14444 ft | 245 kts | 193° |
| 2026-05-07 00:43 | 42.11882 | -70.62133 | 14519 ft | 253 kts | 204° |
| 2026-05-07 00:43 | 42.10133 | -70.62887 | 14580 ft | 270 kts | 205° |
| 2026-05-07 00:44 | 42.08325 | -70.63720 | 14625 ft | 284 kts | 205° |
| 2026-05-07 00:44 | 42.06584 | -70.64516 | 14640 ft | 286 kts | 205° |
| 2026-05-07 00:44 | 42.04817 | -70.65313 | 14660 ft | 286 kts | 205° |
| 2026-05-07 00:44 | 42.03009 | -70.66121 | 14673 ft | 286 kts | 205° |
| 2026-05-07 00:45 | 42.01211 | -70.66919 | 14687 ft | 286 kts | 205° |
| 2026-05-07 00:45 | 41.99318 | -70.67755 | 14726 ft | 286 kts | 205° |
| 2026-05-07 00:45 | 41.97449 | -70.68579 | 14742 ft | 286 kts | 205° |
| 2026-05-07 00:45 | 41.95530 | -70.69423 | 14758 ft | 286 kts | 204° |
| 2026-05-07 00:46 | 41.93636 | -70.70255 | 14782 ft | 287 kts | 204° |
| 2026-05-07 00:46 | 41.91738 | -70.71089 | 14810 ft | 287 kts | 204° |
| 2026-05-07 00:46 | 41.89842 | -70.71921 | 14830 ft | 287 kts | 205° |
| 2026-05-07 00:46 | 41.87969 | -70.72742 | 14907 ft | 291 kts | 204° |
| 2026-05-07 00:47 | 41.86001 | -70.73605 | 15373 ft | 293 kts | 204° |
| 2026-05-07 00:47 | 41.84074 | -70.74470 | 15999 ft | 291 kts | 207° |
| 2026-05-07 00:47 | 41.82263 | -70.75625 | 16536 ft | 288 kts | 214° |
| 2026-05-07 00:47 | 41.80503 | -70.76946 | 17016 ft | 291 kts | 214° |
| 2026-05-07 00:48 | 41.78739 | -70.78290 | 17512 ft | 293 kts | 214° |
| 2026-05-07 00:48 | 41.76957 | -70.79647 | 18035 ft | 295 kts | 214° |
| 2026-05-07 00:48 | 41.75169 | -70.81003 | 18488 ft | 297 kts | 214° |
| 2026-05-07 00:48 | 41.73356 | -70.82373 | 18885 ft | 301 kts | 215° |
| 2026-05-07 00:49 | 41.71523 | -70.83753 | 19282 ft | 304 kts | 215° |
| 2026-05-07 00:49 | 41.69670 | -70.85145 | 19689 ft | 306 kts | 216° |
| 2026-05-07 00:49 | 41.67804 | -70.86545 | 20098 ft | 309 kts | 216° |
| 2026-05-07 00:49 | 41.65921 | -70.87956 | 20513 ft | 311 kts | 216° |
| 2026-05-07 00:50 | 41.64027 | -70.89374 | 20906 ft | 314 kts | 217° |
| 2026-05-07 00:50 | 41.62117 | -70.90803 | 21321 ft | 316 kts | 217° |
| 2026-05-07 00:50 | 41.60191 | -70.92242 | 21717 ft | 318 kts | 218° |
| 2026-05-07 00:50 | 41.58251 | -70.93691 | 22119 ft | 320 kts | 218° |
| 2026-05-07 00:51 | 41.56348 | -70.95219 | 22501 ft | 317 kts | 225° |
| 2026-05-07 00:51 | 41.54699 | -70.97070 | 22893 ft | 313 kts | 231° |
| 2026-05-07 00:51 | 41.53226 | -70.99183 | 23306 ft | 308 kts | 239° |
| 2026-05-07 00:51 | 41.51979 | -71.01544 | 23693 ft | 306 kts | 242° |
| 2026-05-07 00:52 | 41.50800 | -71.03911 | 23827 ft | 306 kts | 243° |
| 2026-05-07 00:52 | 41.49635 | -71.06269 | 23865 ft | 304 kts | 243° |
| 2026-05-07 00:52 | 41.48477 | -71.08611 | 23867 ft | 307 kts | 243° |
| 2026-05-07 00:52 | 41.47285 | -71.11012 | 23877 ft | 306 kts | 243° |
| 2026-05-07 00:53 | 41.46117 | -71.13350 | 23867 ft | 304 kts | 243° |
| 2026-05-07 00:53 | 41.44955 | -71.15672 | 23867 ft | 303 kts | 243° |
| 2026-05-07 00:53 | 41.43781 | -71.18013 | 23867 ft | 303 kts | 243° |
| 2026-05-07 00:53 | 41.42596 | -71.20373 | 23865 ft | 302 kts | 243° |
| 2026-05-07 00:54 | 41.41444 | -71.22665 | 23865 ft | 302 kts | 243° |
| 2026-05-07 00:54 | 41.40266 | -71.25008 | 23869 ft | 301 kts | 243° |
| 2026-05-07 00:54 | 41.39112 | -71.27301 | 23870 ft | 302 kts | 243° |
| 2026-05-07 00:54 | 41.37941 | -71.29624 | 23870 ft | 302 kts | 243° |
| 2026-05-07 00:55 | 41.36771 | -71.31942 | 23866 ft | 302 kts | 243° |
| 2026-05-07 00:55 | 41.35584 | -71.34294 | 23868 ft | 302 kts | 243° |
| 2026-05-07 00:55 | 41.34408 | -71.36622 | 23886 ft | 303 kts | 243° |
| 2026-05-07 00:55 | 41.33252 | -71.38908 | 23884 ft | 303 kts | 243° |
| 2026-05-07 00:56 | 41.32060 | -71.41267 | 23884 ft | 303 kts | 243° |
| 2026-05-07 00:56 | 41.30893 | -71.43574 | 23885 ft | 303 kts | 243° |
| 2026-05-07 00:56 | 41.29715 | -71.45901 | 23963 ft | 305 kts | 243° |
| 2026-05-07 00:56 | 41.28526 | -71.48250 | 24288 ft | 306 kts | 243° |
| 2026-05-07 00:57 | 41.27339 | -71.50589 | 24727 ft | 304 kts | 243° |
| 2026-05-07 00:57 | 41.26541 | -71.52162 | 24980 ft | 304 kts | 243° |
| 2026-05-07 00:57 | 41.24971 | -71.55257 | 25362 ft | 306 kts | 243° |
| 2026-05-07 00:57 | 41.24163 | -71.56849 | 25577 ft | 308 kts | 243° |
| 2026-05-07 00:58 | 41.22965 | -71.59207 | 25899 ft | 309 kts | 242° |
| 2026-05-07 00:58 | 41.21762 | -71.61571 | 26198 ft | 310 kts | 242° |
| 2026-05-07 00:58 | 41.20551 | -71.63950 | 26570 ft | 309 kts | 242° |
| 2026-05-07 00:58 | 41.19349 | -71.66307 | 26978 ft | 307 kts | 242° |
| 2026-05-07 00:59 | 41.16968 | -71.70977 | 27733 ft | 305 kts | 242° |
| 2026-05-07 00:59 | 41.15780 | -71.73304 | 28084 ft | 304 kts | 242° |
| 2026-05-07 00:59 | 41.14600 | -71.75611 | 28470 ft | 302 kts | 242° |
| 2026-05-07 01:00 | 41.13426 | -71.77916 | 28819 ft | 301 kts | 243° |
| 2026-05-07 01:00 | 41.12259 | -71.80212 | 29150 ft | 300 kts | 243° |
| 2026-05-07 01:00 | 41.11096 | -71.82500 | 29479 ft | 299 kts | 243° |
| 2026-05-07 01:00 | 41.09942 | -71.84771 | 29834 ft | 297 kts | 243° |
| 2026-05-07 01:01 | 41.08784 | -71.87050 | 29956 ft | 301 kts | 243° |
| 2026-05-07 01:01 | 41.06400 | -71.91738 | 30065 ft | 312 kts | 242° |
| 2026-05-07 01:02 | 41.03924 | -71.96601 | 30157 ft | 323 kts | 244° |
| 2026-05-07 01:02 | 41.01859 | -72.01933 | 30258 ft | 329 kts | 249° |
| 2026-05-07 01:03 | 40.99923 | -72.07489 | 30556 ft | 334 kts | 250° |
| 2026-05-07 01:03 | 40.98951 | -72.10262 | 30853 ft | 331 kts | 250° |
| 2026-05-07 01:03 | 40.97991 | -72.12987 | 31159 ft | 329 kts | 250° |
| 2026-05-07 01:03 | 40.97023 | -72.15733 | 31392 ft | 328 kts | 250° |
| 2026-05-07 01:04 | 40.96057 | -72.18466 | 31616 ft | 328 kts | 250° |
| 2026-05-07 01:04 | 40.95089 | -72.21204 | 31883 ft | 326 kts | 250° |
| 2026-05-07 01:04 | 40.94143 | -72.23873 | 32132 ft | 325 kts | 250° |
| 2026-05-07 01:04 | 40.93177 | -72.26597 | 32357 ft | 324 kts | 250° |
| 2026-05-07 01:05 | 40.92139 | -72.29271 | 32561 ft | 328 kts | 245° |
| 2026-05-07 01:05 | 40.90862 | -72.31775 | 32772 ft | 331 kts | 241° |
| 2026-05-07 01:05 | 40.89361 | -72.34115 | 32992 ft | 337 kts | 235° |
| 2026-05-07 01:05 | 40.87700 | -72.36301 | 33177 ft | 338 kts | 234° |
| 2026-05-07 01:06 | 40.86017 | -72.38468 | 33355 ft | 338 kts | 234° |
| 2026-05-07 01:06 | 40.84337 | -72.40639 | 33552 ft | 336 kts | 235° |
| 2026-05-07 01:06 | 40.82674 | -72.42798 | 33762 ft | 335 kts | 235° |
| 2026-05-07 01:06 | 40.81014 | -72.44962 | 33922 ft | 335 kts | 235° |
| 2026-05-07 01:07 | 40.79308 | -72.47063 | 34070 ft | 339 kts | 231° |
| 2026-05-07 01:07 | 40.77481 | -72.49059 | 34198 ft | 340 kts | 231° |
| 2026-05-07 01:07 | 40.75636 | -72.51033 | 34320 ft | 340 kts | 231° |
| 2026-05-07 01:07 | 40.73831 | -72.52970 | 34456 ft | 339 kts | 231° |
| 2026-05-07 01:08 | 40.71982 | -72.54965 | 34591 ft | 339 kts | 231° |
| 2026-05-07 01:08 | 40.70186 | -72.56909 | 34701 ft | 338 kts | 232° |
| 2026-05-07 01:08 | 40.68490 | -72.58998 | 34807 ft | 329 kts | 239° |
| 2026-05-07 01:08 | 40.67003 | -72.61302 | 34937 ft | 324 kts | 241° |
| 2026-05-07 01:09 | 40.65577 | -72.63591 | 35060 ft | 323 kts | 241° |
| 2026-05-07 01:09 | 40.64158 | -72.65878 | 35163 ft | 323 kts | 241° |
| 2026-05-07 01:09 | 40.62731 | -72.68177 | 35283 ft | 323 kts | 241° |
| 2026-05-07 01:09 | 40.61310 | -72.70459 | 35398 ft | 322 kts | 241° |
| 2026-05-07 01:10 | 40.59910 | -72.72703 | 35488 ft | 322 kts | 241° |
| 2026-05-07 01:10 | 40.57067 | -72.77246 | 35674 ft | 321 kts | 241° |
| 2026-05-07 01:10 | 40.55650 | -72.79504 | 35790 ft | 320 kts | 241° |
| 2026-05-07 01:11 | 40.54233 | -72.81760 | 35843 ft | 320 kts | 241° |
| 2026-05-07 01:11 | 40.51400 | -72.86267 | 35876 ft | 321 kts | 241° |
| 2026-05-07 01:12 | 40.48537 | -72.90817 | 35883 ft | 323 kts | 241° |
| 2026-05-07 01:12 | 40.45658 | -72.95381 | 35889 ft | 325 kts | 241° |
| 2026-05-07 01:13 | 40.42763 | -72.99963 | 35888 ft | 327 kts | 241° |
| 2026-05-07 01:13 | 40.39840 | -73.04583 | 35887 ft | 330 kts | 241° |
| 2026-05-07 01:14 | 40.36903 | -73.09217 | 35886 ft | 332 kts | 241° |
| 2026-05-07 01:14 | 40.33938 | -73.13890 | 35883 ft | 334 kts | 241° |
| 2026-05-07 01:15 | 40.30947 | -73.18595 | 35884 ft | 337 kts | 241° |
| 2026-05-07 01:15 | 40.27939 | -73.23319 | 35888 ft | 339 kts | 241° |
| 2026-05-07 01:16 | 40.24902 | -73.28082 | 35884 ft | 341 kts | 241° |
| 2026-05-07 01:16 | 40.21848 | -73.32865 | 35887 ft | 344 kts | 241° |
| 2026-05-07 01:17 | 40.18766 | -73.37683 | 35886 ft | 346 kts | 241° |
| 2026-05-07 01:17 | 40.15663 | -73.42527 | 35889 ft | 348 kts | 241° |
| 2026-05-07 01:18 | 40.12539 | -73.47396 | 35890 ft | 351 kts | 241° |
| 2026-05-07 01:18 | 40.09394 | -73.52289 | 35890 ft | 353 kts | 241° |
| 2026-05-07 01:19 | 40.06243 | -73.57186 | 35892 ft | 355 kts | 241° |
| 2026-05-07 01:19 | 40.03031 | -73.62169 | 35895 ft | 357 kts | 241° |
| 2026-05-07 01:20 | 39.99842 | -73.67110 | 35892 ft | 359 kts | 240° |
| 2026-05-07 01:20 | 39.96528 | -73.72034 | 35888 ft | 368 kts | 236° |
| 2026-05-07 01:20 | 39.94550 | -73.74272 | 35887 ft | 379 kts | 229° |
| 2026-05-07 01:21 | 39.92405 | -73.76301 | 35902 ft | 381 kts | 229° |
| 2026-05-07 01:21 | 39.88131 | -73.80300 | 35896 ft | 381 kts | 229° |
| 2026-05-07 01:22 | 39.83836 | -73.84330 | 35892 ft | 380 kts | 229° |
| 2026-05-07 01:22 | 39.79553 | -73.88363 | 35893 ft | 379 kts | 229° |
| 2026-05-07 01:23 | 39.75277 | -73.92388 | 35890 ft | 378 kts | 229° |
| 2026-05-07 01:23 | 39.71028 | -73.96384 | 35889 ft | 377 kts | 229° |
| 2026-05-07 01:24 | 39.66782 | -74.00371 | 35895 ft | 376 kts | 229° |
| 2026-05-07 01:24 | 39.62546 | -74.04343 | 35893 ft | 375 kts | 229° |
| 2026-05-07 01:25 | 39.58327 | -74.08294 | 35895 ft | 374 kts | 229° |
| 2026-05-07 01:25 | 39.54109 | -74.12238 | 35908 ft | 374 kts | 229° |
| 2026-05-07 01:26 | 39.49869 | -74.16163 | 35902 ft | 375 kts | 228° |
| 2026-05-07 01:26 | 39.45596 | -74.20035 | 35900 ft | 376 kts | 228° |
| 2026-05-07 01:27 | 39.41332 | -74.23889 | 35903 ft | 377 kts | 228° |
| 2026-05-07 01:27 | 39.37038 | -74.27771 | 35896 ft | 378 kts | 228° |
| 2026-05-07 01:28 | 39.32706 | -74.31686 | 35889 ft | 380 kts | 228° |
| 2026-05-07 01:28 | 39.28371 | -74.35599 | 35893 ft | 381 kts | 227° |
| 2026-05-07 01:29 | 39.24019 | -74.39521 | 35897 ft | 382 kts | 227° |
| 2026-05-07 01:29 | 39.19648 | -74.43455 | 35898 ft | 384 kts | 227° |
| 2026-05-07 01:30 | 39.15255 | -74.47402 | 35897 ft | 385 kts | 227° |
| 2026-05-07 01:30 | 39.11014 | -74.51207 | 35902 ft | 386 kts | 227° |
| 2026-05-07 01:31 | 39.06608 | -74.55153 | 35909 ft | 387 kts | 227° |
| 2026-05-07 01:31 | 39.02195 | -74.59100 | 35911 ft | 388 kts | 227° |
| 2026-05-07 01:32 | 38.97727 | -74.63089 | 35910 ft | 389 kts | 227° |
| 2026-05-07 01:32 | 38.93360 | -74.66982 | 35909 ft | 389 kts | 227° |
| 2026-05-07 01:33 | 38.88875 | -74.70974 | 35907 ft | 388 kts | 227° |
| 2026-05-07 01:33 | 38.84433 | -74.74921 | 35905 ft | 388 kts | 227° |
| 2026-05-07 01:34 | 38.80010 | -74.78846 | 35903 ft | 387 kts | 227° |
| 2026-05-07 01:34 | 38.75585 | -74.82767 | 35910 ft | 386 kts | 227° |
| 2026-05-07 01:35 | 38.71172 | -74.86672 | 35896 ft | 385 kts | 227° |
| 2026-05-07 01:35 | 38.66756 | -74.90573 | 35899 ft | 385 kts | 227° |
| 2026-05-07 01:36 | 38.62352 | -74.94458 | 35899 ft | 384 kts | 227° |
| 2026-05-07 01:36 | 38.58662 | -74.97708 | 35904 ft | 384 kts | 227° |
| 2026-05-07 01:37 | 38.54261 | -75.01580 | 35909 ft | 384 kts | 227° |
| 2026-05-07 01:37 | 38.49887 | -75.05422 | 35915 ft | 384 kts | 227° |
| 2026-05-07 01:38 | 38.45477 | -75.09290 | 35916 ft | 385 kts | 227° |
| 2026-05-07 01:38 | 38.41056 | -75.13162 | 35920 ft | 385 kts | 227° |
| 2026-05-07 01:39 | 38.36626 | -75.17037 | 35921 ft | 386 kts | 227° |
| 2026-05-07 01:39 | 38.32192 | -75.20907 | 35923 ft | 387 kts | 226° |
| 2026-05-07 01:40 | 38.27739 | -75.24790 | 35921 ft | 388 kts | 226° |
| 2026-05-07 01:40 | 38.23290 | -75.28662 | 35915 ft | 389 kts | 226° |
| 2026-05-07 01:41 | 38.18812 | -75.32554 | 35914 ft | 390 kts | 226° |
| 2026-05-07 01:41 | 38.14327 | -75.36447 | 35919 ft | 390 kts | 226° |
| 2026-05-07 01:42 | 38.09838 | -75.40337 | 35923 ft | 391 kts | 226° |
| 2026-05-07 01:42 | 38.05334 | -75.44234 | 35926 ft | 392 kts | 226° |
| 2026-05-07 01:43 | 38.00846 | -75.48143 | 35932 ft | 392 kts | 227° |
| 2026-05-07 01:43 | 37.96353 | -75.52069 | 35927 ft | 392 kts | 226° |
| 2026-05-07 01:44 | 37.91877 | -75.55971 | 35928 ft | 392 kts | 226° |
| 2026-05-07 01:44 | 37.87398 | -75.59782 | 35916 ft | 400 kts | 220° |
| 2026-05-07 01:44 | 37.84771 | -75.61164 | 35943 ft | 418 kts | 210° |
| 2026-05-07 01:45 | 37.81951 | -75.62022 | 35922 ft | 433 kts | 202° |
| 2026-05-07 01:45 | 37.78799 | -75.62270 | 35915 ft | 456 kts | 190° |
| 2026-05-07 01:45 | 37.75615 | -75.61896 | 35947 ft | 462 kts | 187° |
| 2026-05-07 01:46 | 37.69227 | -75.61149 | 35925 ft | 453 kts | 194° |
| 2026-05-07 01:46 | 37.66153 | -75.61389 | 35927 ft | 433 kts | 203° |
| 2026-05-07 01:46 | 37.63206 | -75.62036 | 35937 ft | 430 kts | 204° |
| 2026-05-07 01:47 | 37.57793 | -75.63294 | 35936 ft | 431 kts | 204° |
| 2026-05-07 01:47 | 37.52019 | -75.64599 | 35924 ft | 433 kts | 204° |
| 2026-05-07 01:48 | 37.46068 | -75.65896 | 35924 ft | 435 kts | 204° |
| 2026-05-07 01:48 | 37.40767 | -75.67036 | 35928 ft | 437 kts | 204° |
| 2026-05-07 01:49 | 37.34692 | -75.68340 | 35933 ft | 438 kts | 203° |
| 2026-05-07 01:49 | 37.28678 | -75.69630 | 35937 ft | 440 kts | 203° |
| 2026-05-07 01:50 | 37.22631 | -75.70926 | 35939 ft | 441 kts | 203° |
| 2026-05-07 01:50 | 37.16534 | -75.72230 | 35943 ft | 443 kts | 203° |
| 2026-05-07 01:51 | 37.10487 | -75.73522 | 35947 ft | 444 kts | 203° |
| 2026-05-07 01:51 | 37.04620 | -75.75373 | 35943 ft | 423 kts | 216° |
| 2026-05-07 01:51 | 37.02032 | -75.76986 | 35951 ft | 410 kts | 222° |
| 2026-05-07 01:52 | 36.99546 | -75.78742 | 35942 ft | 410 kts | 222° |
| 2026-05-07 01:52 | 36.94585 | -75.82247 | 35941 ft | 410 kts | 222° |
| 2026-05-07 01:53 | 36.89585 | -75.85742 | 35938 ft | 411 kts | 222° |
| 2026-05-07 01:53 | 36.84594 | -75.89202 | 35936 ft | 411 kts | 221° |
| 2026-05-07 01:54 | 36.79598 | -75.92654 | 35939 ft | 411 kts | 221° |
| 2026-05-07 01:54 | 36.74617 | -75.96089 | 35940 ft | 410 kts | 221° |
| 2026-05-07 01:55 | 36.69603 | -75.99542 | 35953 ft | 410 kts | 222° |
| 2026-05-07 01:55 | 36.64613 | -76.02974 | 35966 ft | 409 kts | 222° |
| 2026-05-07 01:56 | 36.59642 | -76.06388 | 35950 ft | 409 kts | 222° |
| 2026-05-07 01:56 | 36.54646 | -76.09814 | 35948 ft | 409 kts | 222° |
| 2026-05-07 01:57 | 36.49667 | -76.13223 | 35958 ft | 408 kts | 222° |
| 2026-05-07 01:57 | 36.44691 | -76.16626 | 35961 ft | 408 kts | 221° |
| 2026-05-07 01:58 | 36.39742 | -76.20005 | 35961 ft | 408 kts | 221° |
| 2026-05-07 01:58 | 36.34766 | -76.23397 | 35965 ft | 408 kts | 221° |
| 2026-05-07 01:59 | 36.29758 | -76.26807 | 35968 ft | 408 kts | 222° |
| 2026-05-07 01:59 | 36.24805 | -76.30176 | 35968 ft | 409 kts | 221° |
| 2026-05-07 02:00 | 36.20351 | -76.33198 | 35966 ft | 409 kts | 221° |